• Join FlightAware (Why Join?)
  • Login
  • US Flag 
11:51AM EDT


 

Airport Tracker/Info


-or-


 

Live Flight TrackerFlight Track Log ✈ SWA1910 ✈ 08-Apr-2013 ✈ KFLL - KBUF

Flight Track Log - Related Links

Times and Time Zones

All times are in EDT time to prevent confusion due to time zone crossing. See the SWA1910 flight status page for this flight to view local times or setup timezone preferences in your user account.

Time Position Orientation Groundspeed Altitude Reporting Facility
EDT Latitude Longitude Course Direction KTS MPH feet Rate Location/Type
02:01PM 26.0728 -80.1411 83° East 161 185 600  Level Miami Center
02:03PM 26.0808 -80.0628 83° East 223 257 3,800 2,700 Climbing Miami Center
02:04PM 26.1097 -79.9756 70° East 272 313 7,300 2,820 Climbing Miami Center
02:04PM 26.1231 -79.9458 63° Northeast 270 311 8,000 3,480 Climbing Miami Center
02:05PM 26.1344 -79.8978 75° East 283 326 10,500 2,760 Climbing Miami Center
02:05PM 26.1497 -79.8586 67° East 284 327 10,800 1,980 Climbing Miami Center
02:06PM 26.1872 -79.7694 65° Northeast 364 419 13,400 2,640 Climbing Miami Center
02:07PM 26.2494 -79.6806 52° Northeast 364 419 16,100 2,880 Climbing Miami Center
02:08PM 26.3164 -79.5731 55° Northeast 372 428 19,200 2,700 Climbing Miami Center
02:09PM 26.3742 -79.4842 54° Northeast 391 450 21,600 2,400 Climbing Miami Center
02:10PM 26.4536 -79.3675 53° Northeast 412 474 24,000 2,040 Climbing Miami Center
02:11PM 26.5181 -79.2692 54° Northeast 426 490 25,700 1,620 Climbing Miami Center
02:12PM 26.6278 -79.1992 30° Northeast 433 498 27,300 1,620 Climbing Miami Center
02:13PM 26.7494 -79.1644 14° North 428 493 29,000 1,740 Climbing Miami Center
02:14PM 26.8753 -79.1228 16° North 443 510 30,800 2,100 Climbing Miami Center
02:15PM 26.9872 -79.0572 28° Northeast 455 524 33,200 2,040 Climbing Miami Center
02:16PM 27.1114 -78.9825 28° Northeast 449 517 34,900 1,500 Climbing Miami Center
02:17PM 27.2231 -78.9169 28° Northeast 454 522 36,200 1,020 Climbing Miami Center
02:18PM 27.3431 -78.8511 26° Northeast 459 528 37,000 360 Climbing Miami Center
02:19PM 27.4478 -78.8178 16° North 448 516 37,000  Level Miami Center
02:20PM 27.5714 -78.7894 11° North 440 506 37,000 120 Level Miami Center
02:21PM 27.7056 -78.7636 10° North 433 498 37,300 660 Climbing Miami Center
02:22PM 27.8267 -78.7492 North 433 498 38,400 840 Climbing Miami Center
02:23PM 27.9461 -78.7347 North 433 498 39,000 300 Climbing Miami Center
02:24PM 28.0653 -78.7203 North 433 498 39,000  Level Miami Center
02:25PM 28.1906 -78.7058 North 433 498 39,000  Level Miami Center
02:26PM 28.3119 -78.6889 North 433 498 39,000  Level Miami Center
02:27PM 28.4311 -78.6767 North 438 504 39,000  Level Miami Center
02:28PM 28.5544 -78.6597 North 438 504 39,000  Level Miami Center
02:29PM 28.6756 -78.6428 North 438 504 39,000  Level Miami Center
02:30PM 28.7989 -78.6281 North 438 504 39,000  Level Miami Center
02:31PM 28.9181 -78.6158 North 443 510 39,000  Level Miami Center
02:32PM 29.0350 -78.6011 North 433 498 39,000  Level Miami Center
02:33PM 29.1583 -78.5864 North 433 498 39,000  Level Miami Center
02:34PM 29.2817 -78.5717 North 428 493 39,000  Level Miami Center
02:35PM 29.3967 -78.5544 North 433 498 39,000  Level Miami Center
02:36PM 29.5156 -78.5394 North 422 486 39,000  Level Miami Center
02:37PM 29.6325 -78.5247 North 422 486 39,000  Level Miami Center
02:38PM 29.7336 -78.4992 12° North 422 486 39,000  Level Jacksonville Center
02:39PM 29.8503 -78.4914 North 372 428 39,000  Level Jacksonville Center
02:40PM 29.9603 -78.4722 North 389 448 39,000  Level Jacksonville Center
02:41PM 30.0767 -78.4572 North 399 459 39,000  Level Jacksonville Center
02:42PM 30.1975 -78.4492 North 415 478 39,000  Level Jacksonville Center
02:43PM 30.3117 -78.4294 North 410 472 39,000  Level Jacksonville Center
02:44PM 30.4175 -78.4172 North 404 465 39,000  Level Jacksonville Center
02:45PM 30.5381 -78.4019 North 409 471 39,000  Level Jacksonville Center
02:46PM 30.6503 -78.3869 North 409 471 39,000  Level Jacksonville Center
02:47PM 30.7708 -78.3717 North 414 476 39,000  Level Jacksonville Center
02:48PM 30.8828 -78.3542 North 414 476 39,000  Level Jacksonville Center
02:49PM 31.0075 -78.3386 North 424 488 39,000  Level Jacksonville Center
02:50PM 31.1239 -78.3233 North 426 490 39,000  Level Jacksonville Center
02:51PM 31.2464 -78.3028 North 429 494 39,000  Level Jacksonville Center
02:52PM 31.3628 -78.2922 North 429 494 39,000  Level Jacksonville Center
02:53PM 31.4814 -78.2767 North 424 488 39,000  Level Jacksonville Center
02:54PM 31.5869 -78.2567 North 424 488 39,000  Level Jacksonville Center
02:55PM 31.7056 -78.2433 North 424 488 39,000  Level Jacksonville Center
02:56PM 31.8239 -78.2253 North 424 488 39,000  Level Jacksonville Center
02:57PM 31.9400 -78.2047 North 424 488 39,000  Level Jacksonville Center
02:58PM 32.0561 -78.1889 North 424 488 39,000  Level Jacksonville Center
02:59PM 32.1725 -78.1756 North 424 488 39,000  Level Jacksonville Center
03:00PM 32.2889 -78.1622 North 424 488 39,000  Level Jacksonville Center
03:01PM 32.4053 -78.1439 North 424 488 39,000  Level Jacksonville Center
03:02PM 32.5236 -78.1278 North 424 488 39,000  Level Jacksonville Center
03:03PM 32.6442 -78.1167 North 424 488 39,000  Level Jacksonville Center
03:04PM 32.7603 -78.0956 North 424 488 39,000  Level Jacksonville Center
03:05PM 32.8808 -78.0792 North 424 488 39,000  Level Jacksonville Center
03:06PM 32.9992 -78.0631 North 424 488 39,000  Level Jacksonville Center
03:07PM 33.1175 -78.0492 North 424 488 39,000  Level Jacksonville Center
03:08PM 33.2317 -78.0331 North 419 482 39,000  Level Jacksonville Center
03:09PM 33.3478 -78.0167 North 419 482 39,000  Level Jacksonville Center
03:10PM 33.4906 -77.9969 North 401 461 39,000  Level Washington Center
03:11PM 33.5931 -77.9825 North 393 452 39,000  Level Washington Center
03:12PM 33.7144 -77.9658 North 402 463 39,000  Level Washington Center
03:13PM 33.8272 -77.9492 North 408 470 39,000  Level Washington Center
03:14PM 33.9444 -77.9350 North 408 470 39,000  Level Washington Center
03:15PM 34.0553 -77.9181 North 408 470 39,000  Level Washington Center
03:16PM 34.1642 -77.9011 North 408 470 39,000  Level Washington Center
03:17PM 34.2750 -77.8867 North 408 470 39,000  Level Washington Center
03:18PM 34.3919 -77.8772 North 408 470 39,000  Level Washington Center
03:19PM 34.5047 -77.8753 North 403 464 39,000  Level Washington Center
03:20PM 34.6175 -77.8733 North 403 464 39,000  Level Washington Center
03:21PM 34.7303 -77.8714 North 403 464 39,000  Level Washington Center
03:22PM 34.8303 -77.8692 North 403 464 39,000  Level Washington Center
03:23PM 34.9453 -77.8650 North 403 464 39,000  Level Washington Center
03:24PM 35.0600 -77.8631 North 403 464 39,000  Level Washington Center
03:25PM 35.1728 -77.8611 North 403 464 39,000  Level Washington Center
03:26PM 35.2894 -77.8619 360° North 403 464 39,000  Level Washington Center
03:27PM 35.4044 -77.8575 North 403 464 39,000  Level Washington Center
03:28PM 35.5211 -77.8583 360° North 403 464 39,000  Level Washington Center
03:29PM 35.6339 -77.8536 North 403 464 39,000  Level Washington Center
03:30PM 35.7528 -77.8519 North 403 464 39,000  Level Washington Center
03:31PM 35.8697 -77.8528 360° North 403 464 39,000  Level Washington Center
03:32PM 35.9825 -77.8508 North 408 470 39,000  Level Washington Center
03:33PM 36.0972 -77.8489 North 408 470 39,000  Level Washington Center
03:34PM 36.2119 -77.8472 North 403 464 39,000  Level Washington Center
03:35PM 36.3267 -77.8478 360° North 403 464 39,000  Level Washington Center
03:36PM 36.4458 -77.8461 North 396 456 39,000  Level Washington Center
03:37PM 36.5583 -77.8442 North 396 456 39,000  Level Washington Center
03:38PM 36.6733 -77.8422 North 401 461 39,000  Level Washington Center
03:39PM 36.7881 -77.8431 360° North 401 461 39,000  Level Washington Center
03:40PM 36.8986 -77.8386 North 401 461 39,000  Level Washington Center
03:41PM 37.0114 -77.8367 North 401 461 39,000  Level Washington Center
03:42PM 37.1261 -77.8347 North 401 461 39,000  Level Washington Center
03:43PM 37.2408 -77.8356 360° North 401 461 39,000  Level Washington Center
03:44PM 37.3556 -77.8336 North 401 461 39,000  Level Washington Center
03:45PM 37.4703 -77.8292 North 401 461 39,000  Level Washington Center
03:46PM 37.5828 -77.8428 355° North 401 461 39,000  Level Washington Center
03:47PM 37.6928 -77.8750 347° North 401 461 39,000  Level Washington Center
03:48PM 37.7986 -77.9044 348° North 406 467 39,000  Level Washington Center
03:49PM 37.9083 -77.9369 347° North 406 467 39,000  Level Washington Center
03:50PM 38.0203 -77.9692 347° North 406 467 39,000  Level Washington Center
03:51PM 38.1283 -77.9992 348° North 406 467 39,000  Level Washington Center
03:52PM 38.2381 -78.0292 348° North 406 467 39,000  Level Washington Center
03:53PM 38.3481 -78.0617 347° North 406 467 39,000  Level Washington Center
03:54PM 38.4558 -78.0919 348° North 406 467 39,000  Level Washington Center
03:55PM 38.5636 -78.1247 347° North 406 467 39,000  Level Washington Center
03:56PM 38.6733 -78.1578 347° North 406 467 39,000  Level Washington Center
03:57PM 38.7853 -78.1883 348° North 406 467 39,000  Level Washington Center
03:58PM 38.8972 -78.2136 350° North 406 467 39,000  Level Washington Center
03:59PM 39.0097 -78.2231 356° North 411 473 39,000  Level Washington Center
04:00PM 39.1242 -78.2350 355° North 411 473 39,000  Level Washington Center
04:02PM 39.3325 -78.2592 355° North 415 478 39,000  Level Cleveland Center
04:03PM 39.4411 -78.2689 356° North 405 466 39,000 -480 Level Cleveland Center
04:04PM 39.5539 -78.2811 355° North 405 466 38,100 -1,740 Descending Cleveland Center
04:05PM 39.6647 -78.2936 355° North 405 466 35,600 -2,400 Descending Cleveland Center
04:06PM 39.7858 -78.3056 356° North 405 466 33,300 -1,320 Descending Cleveland Center
04:07PM 39.8903 -78.3131 357° North 412 474 33,000 -540 Descending Cleveland Center
04:08PM 39.9989 -78.3256 355° North 407 468 32,300 -540 Descending Cleveland Center
04:09PM 40.1117 -78.3381 355° North 407 468 32,000 -180 Descending Cleveland Center
04:10PM 40.2225 -78.3506 355° North 407 468 32,000  Level Cleveland Center
04:11PM 40.3353 -78.3606 356° North 407 468 32,000 -120 Level Cleveland Center
04:12PM 40.4461 -78.3733 355° North 407 468 31,800 -540 Descending Cleveland Center
04:13PM 40.5608 -78.3858 355° North 407 468 31,000 -480 Descending Cleveland Center
04:14PM 40.6800 -78.3983 355° North 413 475 30,900 -600 Descending Cleveland Center
04:15PM 40.7928 -78.4108 355° North 413 475 29,900 -1,020 Descending Cleveland Center
04:16PM 40.9267 -78.4258 355° North 418 481 28,900 -1,080 Descending Cleveland Center
04:17PM 41.0414 -78.4386 355° North 423 487 27,800 -1,080 Descending Cleveland Center
04:18PM 41.1542 -78.4486 356° North 423 487 26,800 -1,020 Descending Cleveland Center
04:19PM 41.2669 -78.4614 355° North 418 481 25,800 -1,020 Descending Cleveland Center
04:20PM 41.3800 -78.4744 355° North 408 470 24,800 -900 Descending Cleveland Center
04:21PM 41.4864 -78.4819 357° North 394 453 24,000 -720 Descending Cleveland Center
04:22PM 41.5928 -78.4953 355° North 384 442 23,400 -840 Descending Cleveland Center
04:23PM 41.7014 -78.5083 355° North 384 442 22,400 -720 Descending Cleveland Center
04:24PM 41.8061 -78.5217 355° North 389 448 22,000 -540 Descending Cleveland Center
04:25PM 41.9083 -78.5325 355° North 384 442 21,400 -1,320 Descending Cleveland Center
04:26PM 42.0150 -78.5431 356° North 378 435 19,400 -2,100 Descending Cleveland Center
04:27PM 42.1172 -78.5536 356° North 373 429 17,200 -1,860 Descending Cleveland Center
04:28PM 42.2050 -78.5650 355° North 360 414 15,700 -1,380 Descending Cleveland Center
04:29PM 42.2906 -78.5761 355° North 335 386 14,500 -1,260 Descending Cleveland Center
04:30PM 42.3783 -78.5819 357° North 322 371 13,200 -1,320 Descending Cleveland Center
04:31PM 42.4661 -78.5931 355° North 317 365 11,900 -1,380 Descending Cleveland Center
04:32PM 42.5536 -78.6017 356° North 311 358 10,500 -1,560 Descending Cleveland Center
04:33PM 42.6478 -78.6158 354° North 313 360 8,800 -1,560 Descending Cleveland Center
04:34PM 42.7214 -78.6586 337° Northwest 283 326 7,400 -1,500 Descending Cleveland Center
04:35PM 42.7644 -78.7392 306° West 266 306 5,800 -1,800 Descending Cleveland Center
04:36PM 42.8011 -78.8203 302° West 278 320 3,900 -1,740 Descending Cleveland Center
04:37PM 42.8581 -78.8725 326° Northwest 270 311 2,400 -900 Descending Cleveland Center
04:38PM 42.8833 -78.8000 65° Northeast 154 177 2,200 -600 Descending Buffalo TRACON
04:39PM 42.9167 -78.7667 36° Northeast 125 144 1,300 -1,020 Descending Buffalo TRACON
04:41PM 42.9333 -78.7167 289° West  Level FlightAware Approximate
04:48PM 42.9404 -78.7306 289° West  Level Estimated